KEWB

New Bedford Regional Airport

New Bedford, Massachusetts, USA
METAR KEWB 171553Z 12007KT 10SM CLR 30/24 A3005 RMK AO2 SLP176 T03000239
Observed Flight Rules
Aug-17 @ 15:53 UTC (59 minutes ago) Visual Flight Rules
Wind Visibility Clouds
120° at 7 knots 10 miles
  • Clear skies
Temperatures Readings
Current 30°C / 86°F
Dewpoint 24°C / 75°F
Humidity 70%
Altimeter 30.05" Hg
Pressure 1017.6 hPa
Elevation 23
METAR KEWB 171553Z 12007KT 10SM CLR 30/24 A3005 RMK AO2 SLP176 T03000239
Observed Flight Rules
Aug-17 @ 15:53 UTC
(59 minutes ago)
VFR
Wind Visibility
120° at 7 knots 10 miles
Clouds
  • Clear skies
Temperature Dewpoint
30°C / 86°F 24°C / 75°F
Humidity Altimeter Pressure
70% 30.05" Hg 1017.6 hPa